createdAt,value
2023-04-13T00:00:42.229Z,21.00
2023-04-13T00:03:12.647Z,22.80
2023-04-13T00:05:42.838Z,22.83
2023-04-13T00:08:15.595Z,22.53
2023-04-13T00:10:45.140Z,22.73
2023-04-13T00:13:15.011Z,22.67
2023-04-13T00:15:45.158Z,20.70
2023-04-13T00:18:14.867Z,23.97
2023-04-13T00:20:46.724Z,19.80
2023-04-13T00:23:15.078Z,21.93
2023-04-13T00:25:43.645Z,22.93
2023-04-13T00:28:11.976Z,21.00
2023-04-13T00:30:40.357Z,23.37
2023-04-13T00:33:08.753Z,22.03
2023-04-13T00:35:37.068Z,21.37
2023-04-13T00:38:06.788Z,23.63
2023-04-13T00:40:37.961Z,20.60
2023-04-13T00:43:06.832Z,22.77
2023-04-13T00:45:39.093Z,23.07
2023-04-13T00:48:10.820Z,25.57
2023-04-13T00:51:03.077Z,21.57
2023-04-13T00:53:33.814Z,25.43
2023-04-13T00:56:04.305Z,25.67
2023-04-13T00:58:32.776Z,24.13
2023-04-13T01:01:01.120Z,27.33
2023-04-13T01:03:30.221Z,21.97
2023-04-13T01:06:19.224Z,23.00
2023-04-13T01:09:02.798Z,23.13
2023-04-13T01:11:39.648Z,23.30
2023-04-13T01:14:16.790Z,25.00
2023-04-13T01:16:51.197Z,24.80
2023-04-13T01:19:40.950Z,24.50
2023-04-13T01:22:10.592Z,26.33
2023-04-13T01:24:53.872Z,22.93
2023-04-13T01:27:34.706Z,23.87
2023-04-13T01:30:04.602Z,24.10
2023-04-13T01:32:33.448Z,23.27
2023-04-13T01:35:01.728Z,22.70
2023-04-13T01:37:31.253Z,22.10
2023-04-13T01:39:59.403Z,22.97
2023-04-13T01:42:27.688Z,22.63
2023-04-13T01:44:57.926Z,21.73
2023-04-13T01:47:27.001Z,22.73
2023-04-13T01:50:05.328Z,21.63
2023-04-13T01:52:35.403Z,23.27
2023-04-13T01:55:05.408Z,28.57
2023-04-13T01:57:36.445Z,20.70
2023-04-13T02:00:12.242Z,24.80
2023-04-13T02:02:40.646Z,21.63
2023-04-13T02:05:10.814Z,21.27
2023-04-13T02:10:31.524Z,23.47
2023-04-13T02:12:59.945Z,23.80
2023-04-13T02:15:30.124Z,21.47
2023-04-13T02:18:01.828Z,23.50
2023-04-13T02:20:33.216Z,26.20
2023-04-13T02:23:01.588Z,20.50
2023-04-13T02:25:29.953Z,19.20
2023-04-13T02:28:00.141Z,20.80
2023-04-13T02:30:29.905Z,22.63
2023-04-13T02:32:58.871Z,20.97
2023-04-13T02:35:27.517Z,18.90
2023-04-13T02:37:56.109Z,20.37
2023-04-13T02:40:24.575Z,18.93
2023-04-13T02:42:53.216Z,19.60
2023-04-13T02:45:21.486Z,19.03
2023-04-13T02:47:55.283Z,19.17
2023-04-13T02:50:23.559Z,20.13
2023-04-13T02:52:53.769Z,18.77
2023-04-13T02:55:22.166Z,17.80
2023-04-13T02:57:51.629Z,19.90
2023-04-13T03:00:20.769Z,15.70
2023-04-13T03:02:51.045Z,16.13
2023-04-13T03:05:20.756Z,19.13
2023-04-13T03:07:49.656Z,16.17
2023-04-13T03:10:19.130Z,17.00
2023-04-13T03:12:47.878Z,17.63
2023-04-13T03:15:18.285Z,18.97
2023-04-13T03:17:51.550Z,19.60
2023-04-13T03:20:25.616Z,15.90
2023-04-13T03:22:55.714Z,18.93
2023-04-13T03:25:23.966Z,17.93
2023-04-13T03:27:53.327Z,17.23
2023-04-13T03:30:21.700Z,19.37
2023-04-13T03:32:49.883Z,17.00
2023-04-13T03:35:18.396Z,17.57
2023-04-13T03:37:48.512Z,15.83
2023-04-13T03:40:16.634Z,17.70
2023-04-13T03:42:44.894Z,18.17
2023-04-13T03:45:13.804Z,17.83
2023-04-13T03:47:42.720Z,18.87
2023-04-13T03:50:11.877Z,16.20
2023-04-13T03:52:40.160Z,16.27
2023-04-13T03:55:10.789Z,15.83
2023-04-13T03:57:55.598Z,16.60
2023-04-13T04:00:36.567Z,15.97
2023-04-13T04:03:07.915Z,16.97
2023-04-13T04:05:36.992Z,18.33
2023-04-13T04:08:09.246Z,14.57
2023-04-13T04:10:41.339Z,14.97
2023-04-13T04:13:09.587Z,16.63
2023-04-13T04:15:38.007Z,18.00
2023-04-13T04:18:10.547Z,17.67
2023-04-13T04:20:42.006Z,16.50
2023-04-13T04:23:11.409Z,17.00
2023-04-13T04:25:43.025Z,14.37
2023-04-13T04:28:16.174Z,15.83
2023-04-13T04:30:54.037Z,17.70
2023-04-13T04:33:29.485Z,18.63
2023-04-13T04:35:57.962Z,18.53
2023-04-13T04:38:26.334Z,15.67
2023-04-13T04:40:57.854Z,16.33
2023-04-13T04:43:30.086Z,19.03
2023-04-13T04:45:59.037Z,19.03
2023-04-13T04:48:33.612Z,14.37
2023-04-13T04:51:01.904Z,16.77
2023-04-13T04:53:30.412Z,15.47
2023-04-13T04:56:00.150Z,16.07
2023-04-13T04:58:28.412Z,16.90
2023-04-13T05:00:57.224Z,18.80
2023-04-13T05:03:25.882Z,13.53
2023-04-13T05:05:54.111Z,16.80
2023-04-13T05:08:26.188Z,13.77
2023-04-13T05:10:54.913Z,14.17
2023-04-13T05:13:25.012Z,16.13
2023-04-13T05:15:54.959Z,16.50
2023-04-13T05:18:23.138Z,17.90
2023-04-13T05:20:51.648Z,12.87
2023-04-13T05:23:19.892Z,14.77
2023-04-13T05:25:48.505Z,13.97
2023-04-13T05:28:16.801Z,14.50
2023-04-13T05:30:50.499Z,15.77
2023-04-13T05:33:18.790Z,14.43
2023-04-13T05:35:47.075Z,15.37
2023-04-13T05:38:16.535Z,14.90
2023-04-13T05:40:45.322Z,14.97
2023-04-13T05:43:13.471Z,15.37
2023-04-13T05:45:56.027Z,14.23
2023-04-13T05:48:25.688Z,15.63
2023-04-13T05:50:58.702Z,16.20
2023-04-13T05:53:27.187Z,15.63
2023-04-13T05:55:56.287Z,16.33
2023-04-13T05:58:26.718Z,13.90
2023-04-13T06:00:56.372Z,19.40
2023-04-13T06:03:25.827Z,16.17
2023-04-13T06:05:54.417Z,14.60
2023-04-13T06:08:22.970Z,13.73
2023-04-13T06:10:51.301Z,16.07
2023-04-13T06:13:19.533Z,15.97
2023-04-13T06:15:51.276Z,14.33
2023-04-13T06:18:21.007Z,15.00
2023-04-13T06:20:50.095Z,13.63
2023-04-13T06:23:18.335Z,16.80
2023-04-13T06:25:46.649Z,15.33
2023-04-13T06:28:15.054Z,15.93
2023-04-13T06:30:51.121Z,15.37
2023-04-13T06:33:20.804Z,14.40
2023-04-13T06:35:48.917Z,17.00
2023-04-13T06:38:17.145Z,17.17
2023-04-13T06:40:45.839Z,14.80
2023-04-13T06:43:26.226Z,16.00
2023-04-13T06:46:01.938Z,14.70
2023-04-13T06:48:32.022Z,18.00
2023-04-13T06:51:00.610Z,18.13
2023-04-13T06:53:37.752Z,16.37
2023-04-13T06:56:06.482Z,17.10
2023-04-13T06:58:34.706Z,15.73
2023-04-13T07:01:05.387Z,21.83
2023-04-13T07:03:35.333Z,14.53
2023-04-13T07:06:03.685Z,17.57
2023-04-13T07:08:32.343Z,16.93
2023-04-13T07:11:00.758Z,15.77
2023-04-13T07:13:29.129Z,19.23
2023-04-13T07:15:57.450Z,18.13
2023-04-13T07:18:27.120Z,16.13
2023-04-13T07:21:01.136Z,15.57
2023-04-13T07:23:32.542Z,16.77
2023-04-13T07:26:00.786Z,15.80
2023-04-13T07:28:29.046Z,17.73
2023-04-13T07:30:57.212Z,19.17
2023-04-13T07:33:25.486Z,20.90
2023-04-13T07:35:55.708Z,21.07
2023-04-13T07:38:25.448Z,17.67
2023-04-13T07:40:53.606Z,19.77
2023-04-13T07:43:21.855Z,16.53
2023-04-13T07:45:50.193Z,18.47
2023-04-13T07:48:18.715Z,18.83
2023-04-13T07:50:49.680Z,18.73
2023-04-13T07:53:17.952Z,16.57
2023-04-13T07:55:47.631Z,16.67
2023-04-13T07:58:15.904Z,17.50
2023-04-13T08:00:44.088Z,17.10
2023-04-13T08:03:12.378Z,17.27
2023-04-13T08:05:40.654Z,17.63
2023-04-13T08:08:09.247Z,20.60
2023-04-13T08:10:37.558Z,19.57
2023-04-13T08:13:07.460Z,17.87
2023-04-13T08:15:37.145Z,21.00
2023-04-13T08:18:06.837Z,18.70
2023-04-13T08:20:39.475Z,19.93
2023-04-13T08:23:07.825Z,17.83
2023-04-13T08:25:41.252Z,17.30
2023-04-13T08:28:10.991Z,16.60
2023-04-13T08:30:39.887Z,19.03
2023-04-13T08:33:08.795Z,18.13
2023-04-13T08:35:39.441Z,15.40
2023-04-13T08:38:09.133Z,15.70
2023-04-13T08:40:39.525Z,16.50
2023-04-13T08:43:07.987Z,17.17
2023-04-13T08:45:38.188Z,14.83
2023-04-13T08:48:10.351Z,18.03
2023-04-13T08:51:01.483Z,14.63
2023-04-13T08:53:30.204Z,16.03
2023-04-13T08:56:00.808Z,15.43
2023-04-13T08:58:31.239Z,16.97
2023-04-13T09:01:01.973Z,16.67
2023-04-13T09:03:34.397Z,14.60
2023-04-13T09:06:05.486Z,18.00
2023-04-13T09:08:35.983Z,15.87
2023-04-13T09:11:05.028Z,16.50
2023-04-13T09:13:34.359Z,14.97
2023-04-13T09:16:04.805Z,14.57
2023-04-13T09:18:33.896Z,16.00
2023-04-13T09:21:02.163Z,14.63
2023-04-13T09:23:35.269Z,14.97
2023-04-13T09:26:08.755Z,16.93
2023-04-13T09:28:48.553Z,15.80
2023-04-13T09:31:18.436Z,13.67
2023-04-13T09:33:48.919Z,15.17
2023-04-13T09:36:18.981Z,14.77
2023-04-13T09:38:52.624Z,13.83
2023-04-13T09:41:30.164Z,12.83
2023-04-13T09:44:03.869Z,13.30
2023-04-13T09:46:33.530Z,14.57
2023-04-13T09:49:06.232Z,13.50
2023-04-13T09:51:38.566Z,13.00
2023-04-13T09:54:09.934Z,14.37
2023-04-13T09:56:45.473Z,12.60
2023-04-13T09:59:14.602Z,14.30
2023-04-13T10:01:47.482Z,13.43
2023-04-13T10:04:17.609Z,14.23
2023-04-13T10:06:47.076Z,12.90
2023-04-13T10:09:15.908Z,14.60
2023-04-13T10:11:47.650Z,12.97
2023-04-13T10:14:19.407Z,12.97
2023-04-13T10:17:16.840Z,14.47
2023-04-13T10:19:48.436Z,14.30
2023-04-13T10:22:17.834Z,13.27
2023-04-13T10:24:53.698Z,12.93
2023-04-13T10:27:23.780Z,14.67
2023-04-13T10:29:52.370Z,12.10
2023-04-13T10:32:27.188Z,11.20
2023-04-13T10:34:57.004Z,11.57
2023-04-13T10:37:28.885Z,12.03
2023-04-13T10:40:06.649Z,12.53
2023-04-13T10:45:20.747Z,11.40
2023-04-13T10:47:51.186Z,12.10
2023-04-13T10:50:20.944Z,11.47
2023-04-13T10:53:03.197Z,12.53
2023-04-13T10:55:52.315Z,12.10
2023-04-13T10:58:21.161Z,12.77
2023-04-13T11:00:49.850Z,11.60
2023-04-13T11:03:20.254Z,11.00
2023-04-13T11:05:49.441Z,11.83
2023-04-13T11:08:21.631Z,12.77
2023-04-13T11:10:54.035Z,12.70
2023-04-13T11:13:25.136Z,11.43
2023-04-13T11:16:04.303Z,12.30
2023-04-13T11:18:35.158Z,12.30
2023-04-13T11:21:08.574Z,12.07
2023-04-13T11:23:37.682Z,11.70
2023-04-13T11:26:06.479Z,12.17
2023-04-13T11:28:40.216Z,13.07
2023-04-13T11:31:08.881Z,11.93
2023-04-13T11:33:40.512Z,10.67
2023-04-13T11:36:12.041Z,11.27
2023-04-13T11:38:42.439Z,12.00
2023-04-13T11:43:42.802Z,11.63
2023-04-13T11:46:14.582Z,12.37
2023-04-13T11:48:44.818Z,12.23
2023-04-13T11:51:13.569Z,11.77
2023-04-13T11:53:42.437Z,12.87
2023-04-13T11:56:10.977Z,12.80
2023-04-13T11:58:53.379Z,12.87
2023-04-13T12:01:28.380Z,11.10
2023-04-13T12:04:15.900Z,12.57
2023-04-13T12:06:49.313Z,11.93
2023-04-13T12:09:20.566Z,11.73
2023-04-13T12:12:15.307Z,13.30
2023-04-13T12:15:10.586Z,12.73
2023-04-13T12:17:49.922Z,12.63
2023-04-13T12:20:23.362Z,12.67
2023-04-13T12:23:01.278Z,12.23
2023-04-13T12:25:36.558Z,12.97
2023-04-13T12:28:05.765Z,11.00
2023-04-13T12:30:34.480Z,11.50
2023-04-13T12:33:03.623Z,12.63
2023-04-13T12:35:33.389Z,13.80
2023-04-13T12:38:01.802Z,12.77
2023-04-13T12:40:30.259Z,12.70
2023-04-13T12:42:58.892Z,14.73
2023-04-13T12:45:31.829Z,12.47
2023-04-13T12:48:00.242Z,12.23
2023-04-13T12:50:28.540Z,13.83
2023-04-13T12:52:58.349Z,11.40
2023-04-13T12:55:26.726Z,12.20
2023-04-13T12:57:55.001Z,12.63
2023-04-13T13:00:26.197Z,11.57
2023-04-13T13:03:10.168Z,12.83
2023-04-13T13:05:42.076Z,11.67
2023-04-13T13:08:12.225Z,12.93
2023-04-13T13:10:41.640Z,11.17
2023-04-13T13:13:09.871Z,13.23
2023-04-13T13:15:38.614Z,12.90
2023-04-13T13:18:09.024Z,11.90
2023-04-13T13:20:41.570Z,12.47
2023-04-13T13:23:12.816Z,11.80
2023-04-13T13:25:52.452Z,12.37
2023-04-13T13:28:31.108Z,13.17
2023-04-13T13:31:02.330Z,13.60
2023-04-13T13:33:31.653Z,16.20
2023-04-13T13:35:59.749Z,15.57
2023-04-13T13:38:29.490Z,16.50
2023-04-13T13:40:57.802Z,15.97
2023-04-13T13:43:26.397Z,17.67
2023-04-13T13:45:55.228Z,19.13
2023-04-13T13:48:24.212Z,18.57
2023-04-13T13:50:52.414Z,16.07
2023-04-13T13:53:20.594Z,14.87
2023-04-13T13:55:50.995Z,14.80
2023-04-13T13:58:19.051Z,15.13
2023-04-13T14:00:47.719Z,14.03
2023-04-13T14:03:16.619Z,12.93
2023-04-13T14:05:46.507Z,12.93
2023-04-13T14:08:14.845Z,12.53
2023-04-13T14:10:48.434Z,12.43
2023-04-13T14:13:18.233Z,12.50
2023-04-13T14:15:47.585Z,12.53
2023-04-13T14:18:15.920Z,12.10
2023-04-13T14:20:44.565Z,12.60
2023-04-13T14:23:13.327Z,14.00
2023-04-13T14:25:42.172Z,13.73
2023-04-13T14:28:11.883Z,16.33
2023-04-13T14:30:42.200Z,12.60
2023-04-13T14:33:10.371Z,13.03
2023-04-13T14:35:40.005Z,13.50
2023-04-13T14:38:08.486Z,15.53
2023-04-13T14:40:39.094Z,13.97
2023-04-13T14:43:07.871Z,12.43
2023-04-13T14:45:36.078Z,12.67
2023-04-13T14:48:05.832Z,13.43
2023-04-13T14:50:34.676Z,13.43
2023-04-13T14:53:08.289Z,12.70
2023-04-13T14:55:36.723Z,12.57
2023-04-13T14:58:05.414Z,13.17
2023-04-13T15:00:43.618Z,13.07
2023-04-13T15:03:16.610Z,15.93
2023-04-13T15:05:56.737Z,13.13
2023-04-13T15:08:29.413Z,14.77
2023-04-13T15:11:00.774Z,11.53
2023-04-13T15:13:29.168Z,11.73
2023-04-13T15:15:59.180Z,12.67
2023-04-13T15:18:28.914Z,10.77
2023-04-13T15:20:57.077Z,12.63
2023-04-13T15:23:25.285Z,10.40
2023-04-13T15:25:57.699Z,13.30
2023-04-13T15:28:26.012Z,11.10
2023-04-13T15:30:54.087Z,10.70
2023-04-13T15:33:22.399Z,11.33
2023-04-13T15:35:57.285Z,10.77
2023-04-13T15:38:25.853Z,9.80
2023-04-13T15:40:55.197Z,10.17
2023-04-13T15:43:23.401Z,9.57
2023-04-13T15:45:53.085Z,11.23
2023-04-13T15:48:21.284Z,9.23
2023-04-13T15:50:50.409Z,12.30
2023-04-13T15:53:20.959Z,10.50
2023-04-13T15:55:49.501Z,10.37
2023-04-13T15:58:17.663Z,9.90
2023-04-13T16:00:45.833Z,8.50
2023-04-13T16:03:14.173Z,9.10
2023-04-13T16:05:42.428Z,10.00
2023-04-13T16:08:12.577Z,11.40
2023-04-13T16:10:44.081Z,10.97
2023-04-13T16:13:19.005Z,9.30
2023-04-13T16:15:53.452Z,9.17
2023-04-13T16:18:26.357Z,8.70
2023-04-13T16:20:54.693Z,9.97
2023-04-13T16:23:23.793Z,9.10
2023-04-13T16:25:53.966Z,10.00
2023-04-13T16:28:24.649Z,8.77
2023-04-13T16:30:52.803Z,9.03
2023-04-13T16:33:21.042Z,10.50
2023-04-13T16:36:03.072Z,9.83
2023-04-13T16:38:31.428Z,10.53
2023-04-13T16:41:01.319Z,9.77
2023-04-13T16:43:31.069Z,10.63
2023-04-13T16:46:00.194Z,8.77
2023-04-13T16:48:29.374Z,9.93
2023-04-13T16:51:05.996Z,9.77
2023-04-13T16:53:34.311Z,12.03
2023-04-13T16:56:03.970Z,9.43
2023-04-13T16:58:32.813Z,10.33
2023-04-13T17:01:01.279Z,10.17
2023-04-13T17:03:29.607Z,10.23
2023-04-13T17:05:58.258Z,11.33
2023-04-13T17:08:26.881Z,10.57
2023-04-13T17:10:57.405Z,12.10
2023-04-13T17:13:27.116Z,11.00
2023-04-13T17:15:56.536Z,11.30
2023-04-13T17:18:24.857Z,13.00
2023-04-13T17:20:58.620Z,15.23
2023-04-13T17:23:26.808Z,13.17
2023-04-13T17:29:22.210Z,13.77
2023-04-13T17:31:52.204Z,11.40
2023-04-13T17:34:20.683Z,17.00
2023-04-13T17:36:48.803Z,14.10
2023-04-13T17:39:19.828Z,12.70
2023-04-13T17:41:48.121Z,14.20
2023-04-13T17:44:16.834Z,14.83
2023-04-13T17:46:45.905Z,12.07
2023-04-13T17:49:15.716Z,11.83
2023-04-13T17:51:46.131Z,12.47
2023-04-13T17:54:14.325Z,15.20
2023-04-13T17:56:42.634Z,11.53
2023-04-13T17:59:16.012Z,13.33
2023-04-13T18:01:44.365Z,18.50
2023-04-13T18:04:13.535Z,14.00
2023-04-13T18:06:45.864Z,15.20
2023-04-13T18:09:22.807Z,15.07
2023-04-13T18:11:51.009Z,12.97
2023-04-13T18:14:19.715Z,12.87
2023-04-13T18:16:47.807Z,14.70
2023-04-13T18:19:19.024Z,15.37
2023-04-13T18:21:48.532Z,15.77
2023-04-13T18:24:17.075Z,14.90
2023-04-13T18:26:45.286Z,16.30
2023-04-13T18:29:14.200Z,15.63
2023-04-13T18:31:42.485Z,17.87
2023-04-13T18:34:12.897Z,15.33
2023-04-13T18:36:42.328Z,16.97
2023-04-13T18:39:11.947Z,20.23
2023-04-13T18:41:42.280Z,18.50
2023-04-13T18:44:11.151Z,17.00
2023-04-13T18:46:39.380Z,18.53
2023-04-13T18:49:07.612Z,19.70
2023-04-13T18:51:38.720Z,21.63
2023-04-13T18:54:06.970Z,16.60
2023-04-13T18:56:36.579Z,18.03
2023-04-13T18:59:04.777Z,15.97
2023-04-13T19:01:32.976Z,16.43
2023-04-13T19:04:02.920Z,16.43
2023-04-13T19:06:31.516Z,15.77
2023-04-13T19:09:02.420Z,16.53
2023-04-13T19:11:49.177Z,16.27
2023-04-13T19:14:17.443Z,18.40
2023-04-13T19:16:48.672Z,19.17
2023-04-13T19:19:25.522Z,19.17
2023-04-13T19:21:54.341Z,18.60
2023-04-13T19:24:23.164Z,19.20
2023-04-13T19:26:55.119Z,17.90
2023-04-13T19:29:23.414Z,16.80
2023-04-13T19:31:51.666Z,21.07
2023-04-13T19:34:19.970Z,15.67
2023-04-13T19:36:48.270Z,16.47
2023-04-13T19:39:16.614Z,15.40
2023-04-13T19:41:45.347Z,16.60
2023-04-13T19:44:16.900Z,16.40
2023-04-13T19:46:46.352Z,17.30
2023-04-13T19:49:15.041Z,16.80
2023-04-13T19:51:43.561Z,16.13
2023-04-13T19:54:11.744Z,15.87
2023-04-13T19:56:43.621Z,15.60
2023-04-13T19:59:16.494Z,15.97
2023-04-13T20:01:45.896Z,14.27
2023-04-13T20:04:14.417Z,17.17
2023-04-13T20:06:42.707Z,15.07
2023-04-13T20:09:11.977Z,11.83
2023-04-13T20:11:46.150Z,14.17
2023-04-13T20:14:16.293Z,14.90
2023-04-13T20:16:46.272Z,12.37
2023-04-13T20:19:14.668Z,15.13
2023-04-13T20:21:46.649Z,12.43
2023-04-13T20:24:14.988Z,11.00
2023-04-13T20:26:47.211Z,15.97
2023-04-13T20:29:21.820Z,10.93
2023-04-13T20:31:50.474Z,16.13
2023-04-13T20:34:22.092Z,14.33
2023-04-13T20:36:50.472Z,11.70
2023-04-13T20:39:25.717Z,13.63
2023-04-13T20:41:56.219Z,14.70
2023-04-13T20:44:27.462Z,13.93
2023-04-13T20:46:56.558Z,19.77
2023-04-13T20:49:25.866Z,12.97
2023-04-13T20:51:56.626Z,16.20
2023-04-13T20:54:25.114Z,12.70
2023-04-13T20:56:53.443Z,13.00
2023-04-13T20:59:23.241Z,15.53
2023-04-13T21:01:56.107Z,14.77
2023-04-13T21:04:24.242Z,14.13
2023-04-13T21:06:52.475Z,14.90
2023-04-13T21:09:22.946Z,13.07
2023-04-13T21:11:51.110Z,16.13
2023-04-13T21:14:23.376Z,14.77
2023-04-13T21:16:54.542Z,14.73
2023-04-13T21:19:23.840Z,13.30
2023-04-13T21:21:52.305Z,13.90
2023-04-13T21:24:21.080Z,15.23
2023-04-13T21:26:49.201Z,15.27
2023-04-13T21:29:20.102Z,13.70
2023-04-13T21:32:10.841Z,17.67
2023-04-13T21:34:41.826Z,14.57
2023-04-13T21:37:09.998Z,12.30
2023-04-13T21:39:38.554Z,16.23
2023-04-13T21:42:06.905Z,15.57
2023-04-13T21:44:35.004Z,16.10
2023-04-13T21:47:05.460Z,15.37
2023-04-13T21:49:37.111Z,16.87
2023-04-13T21:52:05.754Z,17.93
2023-04-13T21:54:34.029Z,15.67
2023-04-13T21:57:02.162Z,13.90
2023-04-13T21:59:37.011Z,17.23
2023-04-13T22:02:05.259Z,16.57
2023-04-13T22:04:34.934Z,17.47
2023-04-13T22:07:03.454Z,17.63
2023-04-13T22:09:38.910Z,15.33
2023-04-13T22:12:07.308Z,13.40
2023-04-13T22:14:35.458Z,13.67
2023-04-13T22:17:03.848Z,11.43
2023-04-13T22:19:42.591Z,15.67
2023-04-13T22:22:10.824Z,19.80
2023-04-13T22:24:40.693Z,19.70
2023-04-13T22:27:09.037Z,16.70
2023-04-13T22:29:40.483Z,16.23
2023-04-13T22:32:11.161Z,13.17
2023-04-13T22:34:49.952Z,22.33
2023-04-13T22:37:18.041Z,18.67
2023-04-13T22:39:46.133Z,21.23
2023-04-13T22:42:14.301Z,18.57
2023-04-13T22:44:42.543Z,18.33
2023-04-13T22:47:10.615Z,16.70
2023-04-13T22:49:39.434Z,14.70
2023-04-13T22:52:09.183Z,20.73
2023-04-13T22:54:37.403Z,16.33
2023-04-13T22:57:05.754Z,15.00
2023-04-13T22:59:41.309Z,16.43
2023-04-13T23:02:09.774Z,20.63
2023-04-13T23:04:38.660Z,17.40
2023-04-13T23:07:08.310Z,17.03
2023-04-13T23:09:36.485Z,18.77
2023-04-13T23:12:08.071Z,18.93
2023-04-13T23:14:36.385Z,19.20
2023-04-13T23:17:04.900Z,14.97
2023-04-13T23:19:34.441Z,13.00
2023-04-13T23:22:13.255Z,20.23
2023-04-13T23:24:41.311Z,14.90
2023-04-13T23:27:09.478Z,17.43
2023-04-13T23:29:39.841Z,15.33
2023-04-13T23:32:07.967Z,16.83
2023-04-13T23:34:36.086Z,16.80
2023-04-13T23:37:04.310Z,18.60
2023-04-13T23:39:33.872Z,18.20
2023-04-13T23:42:02.292Z,16.77
2023-04-13T23:44:30.600Z,15.00
2023-04-13T23:46:58.890Z,17.13
2023-04-13T23:49:27.255Z,14.80
2023-04-13T23:51:55.595Z,15.23
2023-04-13T23:54:23.641Z,14.93
2023-04-13T23:56:53.136Z,18.27
2023-04-13T23:59:21.421Z,20.77
